Time;durP1;ratioP1;P1;durP2;ratioP2;P2;SDS_P1;SDS_P2;PMS_P1;PMS_P2;Temp;Humidity;BMP_temperature;BMP_pressure;BME280_temperature;BME280_humidity;BME280_pressure;Samples;Min_cycle;Max_cycle;Signal;HPM_P1;HPM_P2
2022/10/19 00:01:50;;;;;;;1.80;0.53;;;;;;;11.40;42.08;95729.00;5109878;28;20476;-68
2022/10/19 00:04:17;;;;;;;0.20;0.20;;;;;;;12.12;40.71;95727.94;5104119;28;20827;-70
2022/10/19 00:06:45;;;;;;;1.07;0.83;;;;;;;12.29;40.31;95735.75;5098732;28;20474;-67
2022/10/19 00:09:15;;;;;;;0.23;0.23;;;;;;;12.52;39.72;95736.28;5095058;28;20464;-72
2022/10/19 00:11:44;;;;;;;2.67;1.53;;;;;;;12.32;40.00;95707.16;5108326;28;20472;-70
2022/10/19 00:14:15;;;;;;;0.50;0.50;;;;;;;12.40;40.02;95724.31;5108823;28;20876;-70
2022/10/19 00:16:45;;;;;;;2.47;0.83;;;;;;;12.85;39.15;95722.94;5099459;28;20473;-75
2022/10/19 00:19:18;;;;;;;0.27;0.27;;;;;;;13.01;38.74;95716.78;5105431;28;20448;-72
2022/10/19 00:21:45;;;;;;;1.17;1.07;;;;;;;12.89;38.68;95718.78;5096665;28;20481;-69
2022/10/19 00:24:13;;;;;;;1.90;0.83;;;;;;;12.42;39.58;95723.03;5103418;28;20436;-71
2022/10/19 00:26:40;;;;;;;0.50;0.50;;;;;;;12.57;39.51;95702.16;5088176;28;20821;-70
2022/10/19 00:29:09;;;;;;;1.27;1.07;;;;;;;12.33;39.67;95710.56;5089127;28;20532;-71
2022/10/19 00:31:37;;;;;;;0.30;0.30;;;;;;;12.03;40.58;95703.13;5086578;28;20439;-70
2022/10/19 00:34:04;;;;;;;0.20;0.20;;;;;;;12.23;40.16;95695.47;5101511;28;20516;-71
2022/10/19 00:36:33;;;;;;;0.30;0.30;;;;;;;12.20;40.38;95695.97;5103748;28;20437;-72
2022/10/19 00:39:02;;;;;;;0.63;0.63;;;;;;;12.27;40.33;95691.31;5088309;28;20472;-70
2022/10/19 00:41:31;;;;;;;2.37;0.63;;;;;;;12.13;40.61;95690.13;5099088;28;21031;-68
2022/10/19 00:43:59;;;;;;;2.60;1.77;;;;;;;12.11;40.70;95684.31;5102597;28;20499;-65
2022/10/19 00:46:28;;;;;;;0.50;0.50;;;;;;;11.41;42.44;95680.72;5115379;28;20571;-68
2022/10/19 00:49:20;;;;;;;0.40;0.40;;;;;;;11.45;41.98;95681.84;5108599;28;21031;-69
2022/10/19 00:51:54;;;;;;;1.83;1.00;;;;;;;10.96;43.02;95679.03;5093029;28;20437;-69
2022/10/19 00:54:22;;;;;;;0.63;0.47;;;;;;;10.89;43.39;95675.75;5088283;28;20506;-68
2022/10/19 00:56:52;;;;;;;1.30;1.20;;;;;;;11.35;42.26;95677.25;5087895;28;20433;-69
2022/10/19 00:59:23;;;;;;;1.30;1.20;;;;;;;11.65;41.43;95661.16;5095139;28;20523;-71
2022/10/19 01:01:52;;;;;;;2.27;1.63;;;;;;;12.00;41.24;95664.22;5095705;28;20854;-71
2022/10/19 01:04:22;;;;;;;0.40;0.40;;;;;;;10.77;43.42;95651.44;5103248;28;20433;-71
2022/10/19 01:06:50;;;;;;;0.30;0.30;;;;;;;11.43;42.79;95655.03;5101051;28;20444;-69
2022/10/19 01:09:22;;;;;;;0.40;0.40;;;;;;;11.52;42.30;95659.66;5104040;28;20441;-74
2022/10/19 01:12:16;;;;;;;1.10;1.07;;;;;;;11.62;41.83;95657.16;5099891;28;20522;-72
2022/10/19 01:15:13;;;;;;;1.47;0.77;;;;;;;11.98;41.17;95655.78;5109136;28;20436;-72
2022/10/19 01:18:12;;;;;;;2.30;1.33;;;;;;;12.15;40.90;95646.00;5094549;28;20436;-70
2022/10/19 01:21:19;;;;;;;1.10;1.07;;;;;;;12.14;40.71;95624.19;5086364;28;20445;-69
2022/10/19 01:24:21;;;;;;;0.27;0.27;;;;;;;12.04;40.97;95637.22;5095434;28;20556;-74
2022/10/19 01:27:10;;;;;;;0.10;0.10;;;;;;;11.23;42.85;95653.75;5101170;28;20467;-71
2022/10/19 01:30:22;;;;;;;0.97;0.97;;;;;;;11.37;42.46;95648.16;5094267;28;20437;-72
2022/10/19 01:33:14;;;;;;;1.20;1.10;;;;;;;11.48;42.07;95644.63;5089121;28;20529;-73
2022/10/19 01:36:05;;;;;;;0.37;0.37;;;;;;;11.12;42.47;95625.78;5112869;28;20454;-66
2022/10/19 01:38:41;;;;;;;0.20;0.20;;;;;;;11.57;42.01;95632.69;5097598;28;20436;-72
2022/10/19 01:41:16;;;;;;;0.53;0.53;;;;;;;11.79;41.54;95630.88;5105233;28;20494;-71
2022/10/19 01:44:12;;;;;;;2.80;0.93;;;;;;;11.65;41.74;95621.78;5105606;28;20491;-67
2022/10/19 01:47:05;;;;;;;0.83;0.73;;;;;;;11.85;41.33;95624.66;5091392;28;20507;-72
2022/10/19 01:49:43;;;;;;;0.13;0.13;;;;;;;11.73;41.73;95624.00;5091403;28;20503;-72
2022/10/19 01:52:17;;;;;;;1.00;0.40;;;;;;;11.98;41.32;95609.31;5094083;28;20445;-71
2022/10/19 01:54:48;;;;;;;0.20;0.20;;;;;;;11.90;40.84;95627.31;5091529;28;20972;-73
2022/10/19 01:57:22;;;;;;;0.50;0.50;;;;;;;11.66;41.67;95618.91;5104977;28;20440;-73
2022/10/19 01:59:51;;;;;;;2.67;1.80;;;;;;;11.28;41.79;95602.38;5091593;28;20512;-71
2022/10/19 02:02:19;;;;;;;3.03;1.30;;;;;;;11.26;41.31;95620.97;5104493;28;20472;-70
2022/10/19 02:04:49;;;;;;;6.53;0.83;;;;;;;10.67;42.28;95630.31;5112174;28;20213;-72
2022/10/19 02:07:19;;;;;;;1.20;1.10;;;;;;;10.04;44.04;95621.84;5110966;28;21270;-71
2022/10/19 02:09:46;;;;;;;0.30;0.30;;;;;;;10.01;43.56;95624.94;5097300;28;20269;-73
2022/10/19 02:12:15;;;;;;;3.83;2.03;;;;;;;10.21;43.08;95622.72;5099672;28;20987;-69
2022/10/19 02:14:46;;;;;;;0.63;0.63;;;;;;;10.76;42.46;95615.78;5091020;28;20569;-69
2022/10/19 02:17:20;;;;;;;0.27;0.27;;;;;;;10.89;41.98;95615.44;5101002;28;20452;-73
2022/10/19 02:19:47;;;;;;;0.77;0.77;;;;;;;11.02;41.55;95612.50;5111853;28;20448;-70
2022/10/19 02:22:14;;;;;;;0.53;0.53;;;;;;;11.09;41.20;95605.25;5111127;27;20466;-70
2022/10/19 02:24:40;;;;;;;7.63;1.20;;;;;;;10.51;42.48;95611.97;5095928;28;20855;-73
2022/10/19 02:27:08;;;;;;;4.13;1.03;;;;;;;10.40;43.26;95615.44;5098224;28;20271;-70
2022/10/19 02:29:36;;;;;;;1.10;0.57;;;;;;;10.56;42.73;95612.84;5098664;28;20531;-70
2022/10/19 02:32:04;;;;;;;0.82;0.82;;;;;;;10.79;42.23;95610.06;5105367;28;20468;-72
2022/10/19 02:34:32;;;;;;;0.25;0.25;;;;;;;10.71;42.70;95615.69;5103841;28;20653;-74
2022/10/19 02:36:58;;;;;;;0.00;0.00;;;;;;;10.77;42.71;95612.13;5111131;28;20191;-72
2022/10/19 02:39:25;;;;;;;0.00;0.00;;;;;;;10.72;43.13;95612.06;5110565;28;20277;-71
2022/10/19 02:42:19;;;;;;;0.63;0.63;;;;;;;10.73;43.07;95608.38;5098138;28;20227;-68
2022/10/19 02:45:00;;;;;;;0.33;0.33;;;;;;;10.65;43.10;95619.28;5090226;28;20441;-68
2022/10/19 02:47:32;;;;;;;0.40;0.40;;;;;;;10.93;42.49;95616.56;5092095;28;20452;-69
2022/10/19 02:50:00;;;;;;;0.10;0.10;;;;;;;11.13;42.09;95606.38;5102082;28;20188;-72
2022/10/19 02:52:27;;;;;;;3.37;2.13;;;;;;;11.03;42.14;95608.84;5096237;28;20876;-71
2022/10/19 02:54:54;;;;;;;0.32;0.32;;;;;;;10.98;42.19;95608.75;5099412;28;20445;-71
2022/10/19 02:57:23;;;;;;;5.17;0.83;;;;;;;10.91;42.41;95608.13;5104597;28;20649;-71
2022/10/19 02:59:51;;;;;;;3.57;1.37;;;;;;;10.76;42.49;95596.63;5101298;28;20432;-71
2022/10/19 03:02:19;;;;;;;1.13;1.03;;;;;;;10.51;43.12;95597.03;5093577;28;20477;-68
2022/10/19 03:04:46;;;;;;;0.63;0.63;;;;;;;10.77;42.30;95596.41;5090263;28;20441;-72
2022/10/19 03:07:19;;;;;;;1.00;0.97;;;;;;;10.90;42.27;95596.06;5104433;28;20444;-74
2022/10/19 03:09:47;;;;;;;1.13;1.03;;;;;;;11.08;42.08;95598.44;5099163;28;20444;-69
2022/10/19 03:12:14;;;;;;;1.10;0.73;;;;;;;11.08;41.92;95592.38;5110051;28;20451;-67
2022/10/19 03:14:41;;;;;;;0.37;0.37;;;;;;;10.66;42.79;95610.38;5089576;28;20440;-73
2022/10/19 03:17:09;;;;;;;2.90;1.80;;;;;;;11.00;42.13;95606.69;5103203;28;20440;-75
2022/10/19 03:19:36;;;;;;;0.57;0.53;;;;;;;11.01;42.19;95607.50;5095925;28;20428;-73
2022/10/19 03:22:03;;;;;;;4.30;2.83;;;;;;;10.81;42.60;95594.88;5110197;28;20444;-74
2022/10/19 03:24:31;;;;;;;0.50;0.50;;;;;;;10.57;43.04;95611.81;5110202;28;20442;-69
2022/10/19 03:26:58;;;;;;;0.07;0.07;;;;;;;10.29;44.08;95614.47;5111139;28;20539;-74
2022/10/19 03:29:24;;;;;;;0.53;0.53;;;;;;;10.06;44.25;95625.81;5110602;28;20817;-69
2022/10/19 03:31:51;;;;;;;0.93;0.87;;;;;;;10.44;43.46;95614.72;5104815;27;20451;-66
2022/10/19 03:34:20;;;;;;;1.60;0.87;;;;;;;9.94;43.96;95611.19;5100399;28;20514;-76
2022/10/19 03:36:46;;;;;;;0.38;0.38;;;;;;;9.65;44.02;95601.72;5110635;28;20428;-73
2022/10/19 03:39:14;;;;;;;0.43;0.43;;;;;;;9.34;45.49;95605.56;5110741;28;20277;-71
2022/10/19 03:41:42;;;;;;;4.88;1.98;;;;;;;9.19;45.53;95598.19;5099305;28;20191;-71
2022/10/19 03:44:10;;;;;;;0.28;0.28;;;;;;;9.74;44.73;95608.97;5106550;28;20258;-71
2022/10/19 03:46:37;;;;;;;0.25;0.25;;;;;;;9.71;44.27;95595.53;5100617;28;20657;-69
2022/10/19 03:49:05;;;;;;;0.20;0.20;;;;;;;9.94;43.58;95604.13;5104991;28;20400;-70
2022/10/19 03:51:32;;;;;;;0.32;0.30;;;;;;;10.09;43.74;95598.41;5097260;28;20222;-70
2022/10/19 03:54:02;;;;;;;0.47;0.47;;;;;;;10.36;43.03;95596.78;5093736;28;20206;-72
2022/10/19 03:56:30;;;;;;;0.40;0.40;;;;;;;10.28;43.17;95601.59;5099582;28;20267;-70
2022/10/19 03:58:59;;;;;;;2.67;1.70;;;;;;;10.04;43.53;95595.66;5099589;28;20306;-71
2022/10/19 04:01:34;;;;;;;0.10;0.10;;;;;;;10.29;43.05;95604.00;5094770;28;20526;-70
2022/10/19 04:04:14;;;;;;;1.55;0.32;;;;;;;10.08;46.02;95602.00;5094334;28;21001;-69
2022/10/19 04:06:43;;;;;;;0.47;0.28;;;;;;;9.83;46.64;95606.78;5099658;28;20193;-72
2022/10/19 04:09:13;;;;;;;1.27;1.23;;;;;;;10.24;44.19;95601.28;5089480;28;20199;-71
2022/10/19 04:11:41;;;;;;;1.75;0.73;;;;;;;9.92;44.81;95600.16;5089310;28;20345;-75
2022/10/19 04:14:10;;;;;;;0.87;0.87;;;;;;;10.31;43.53;95601.16;5094153;28;20575;-72
2022/10/19 04:16:44;;;;;;;4.63;1.25;;;;;;;10.14;45.35;95595.88;5094730;28;20961;-74
2022/10/19 04:19:15;;;;;;;8.73;3.28;;;;;;;10.10;45.19;95595.56;5096805;28;20302;-73
2022/10/19 04:21:43;;;;;;;5.20;1.35;;;;;;;10.06;45.65;95590.97;5103365;28;20202;-73
2022/10/19 04:24:13;;;;;;;0.63;0.50;;;;;;;9.85;46.00;95581.94;5088324;28;20397;-72
2022/10/19 04:26:42;;;;;;;0.40;0.40;;;;;;;10.04;45.72;95582.56;5108484;28;20479;-74
2022/10/19 04:29:10;;;;;;;0.57;0.53;;;;;;;9.96;45.21;95582.94;5096674;28;20438;-73
2022/10/19 04:31:38;;;;;;;2.60;2.00;;;;;;;10.25;44.26;95579.31;5107589;28;20447;-69
2022/10/19 04:34:06;;;;;;;2.00;1.50;;;;;;;9.65;48.40;95575.56;5109269;28;20539;-72
2022/10/19 04:36:33;;;;;;;0.65;0.63;;;;;;;9.47;48.65;95584.34;5094265;28;20487;-72
2022/10/19 04:39:02;;;;;;;5.82;1.77;;;;;;;9.48;46.77;95585.16;5099612;28;20237;-70
2022/10/19 04:41:29;;;;;;;0.15;0.15;;;;;;;9.13;46.57;95579.97;5093964;28;20281;-70
2022/10/19 04:43:58;;;;;;;0.33;0.33;;;;;;;9.67;45.47;95578.75;5102084;28;20233;-72
2022/10/19 04:46:26;;;;;;;0.22;0.22;;;;;;;9.62;45.25;95576.81;5095966;28;20933;-72
2022/10/19 04:48:54;;;;;;;0.20;0.20;;;;;;;9.82;44.96;95581.63;5094877;28;20230;-72
2022/10/19 04:51:23;;;;;;;2.90;2.60;;;;;;;10.26;44.64;95578.25;5086404;28;20195;-66
2022/10/19 04:53:50;;;;;;;12.13;7.70;;;;;;;10.29;44.46;95583.06;5091650;28;20804;-68
2022/10/19 04:56:22;;;;;;;10.67;8.20;;;;;;;10.43;44.29;95584.31;5099606;28;20928;-67
2022/10/19 04:58:49;;;;;;;0.85;0.85;;;;;;;10.01;43.77;95585.66;5090777;28;20453;-73
2022/10/19 05:01:20;;;;;;;1.77;1.30;;;;;;;9.84;44.36;95580.38;5113495;28;20273;-74
2022/10/19 05:03:52;;;;;;;1.40;0.40;;;;;;;9.93;44.25;95583.41;5097680;28;20704;-75
2022/10/19 05:06:19;;;;;;;0.75;0.75;;;;;;;9.37;45.39;95583.34;5100987;28;20451;-74
2022/10/19 05:08:48;;;;;;;1.03;0.97;;;;;;;9.21;45.83;95579.63;5098280;28;20323;-74
2022/10/19 05:11:16;;;;;;;0.73;0.73;;;;;;;9.44;45.60;95584.00;5105792;28;20443;-70
2022/10/19 05:13:44;;;;;;;4.93;4.37;;;;;;;9.78;44.79;95581.28;5105718;28;20285;-66
2022/10/19 05:16:13;;;;;;;4.32;3.92;;;;;;;9.45;45.25;95575.94;5112650;28;20441;-68
2022/10/19 05:18:40;;;;;;;2.03;1.92;;;;;;;9.83;44.86;95583.22;5109899;28;20218;-70
2022/10/19 05:21:10;;;;;;;0.40;0.40;;;;;;;10.18;43.58;95570.81;5097491;28;20584;-69
2022/10/19 05:23:38;;;;;;;1.17;0.50;;;;;;;10.43;43.39;95568.59;5103496;28;20253;-68
2022/10/19 05:26:08;;;;;;;0.75;0.75;;;;;;;10.02;44.56;95567.09;5105482;28;21017;-71
2022/10/19 05:28:35;;;;;;;1.27;1.17;;;;;;;10.33;43.91;95573.66;5098766;28;20217;-72
2022/10/19 05:31:12;;;;;;;0.88;0.88;;;;;;;10.66;43.30;95573.69;5111670;28;20523;-76
2022/10/19 05:33:40;;;;;;;1.15;1.02;;;;;;;10.29;44.09;95583.06;5103578;28;20225;-76
2022/10/19 05:36:21;;;;;;;0.57;0.57;;;;;;;10.29;43.81;95588.28;5092064;28;20256;-77
2022/10/19 05:38:49;;;;;;;0.80;0.80;;;;;;;10.29;44.13;95580.44;5100116;28;20521;-76
2022/10/19 05:41:16;;;;;;;3.40;3.10;;;;;;;10.46;43.77;95570.75;5102347;28;20201;-75
2022/10/19 05:43:47;;;;;;;0.70;0.70;;;;;;;10.62;43.69;95577.81;5115518;28;20887;-76
2022/10/19 05:46:18;;;;;;;0.50;0.50;;;;;;;10.66;45.53;95589.41;5092440;28;20477;-76
2022/10/19 05:48:46;;;;;;;0.30;0.30;;;;;;;10.23;45.15;95578.75;5105105;28;20194;-74
2022/10/19 05:51:15;;;;;;;1.40;0.87;;;;;;;10.89;43.63;95567.47;5102114;28;20967;-76
2022/10/19 05:53:42;;;;;;;0.80;0.80;;;;;;;10.99;43.85;95578.91;5106560;28;20440;-75
2022/10/19 05:56:14;;;;;;;2.50;2.05;;;;;;;11.33;42.80;95573.59;5100266;28;20444;-78
2022/10/19 05:58:41;;;;;;;1.27;1.20;;;;;;;10.79;43.99;95581.22;5111393;28;20199;-74
2022/10/19 06:01:09;;;;;;;0.90;0.87;;;;;;;10.65;44.61;95569.47;5098923;28;20522;-75
2022/10/19 06:03:36;;;;;;;1.20;1.13;;;;;;;11.03;44.58;95580.00;5111817;28;20576;-76
2022/10/19 06:06:05;;;;;;;0.30;0.30;;;;;;;11.36;43.73;95583.59;5106138;28;20854;-77
2022/10/19 06:08:32;;;;;;;0.70;0.70;;;;;;;11.09;44.17;95579.03;5091674;28;20616;-77
2022/10/19 06:11:36;;;;;;;4.33;3.13;;;;;;;11.02;43.93;95583.66;5094490;28;20536;-76
2022/10/19 06:14:06;;;;;;;0.60;0.60;;;;;;;10.90;43.30;95575.09;5053336;28;20487;-77
2022/10/19 06:16:33;;;;;;;1.07;0.93;;;;;;;11.21;43.08;95581.56;5093201;28;20480;-76
2022/10/19 06:19:00;;;;;;;1.43;1.33;;;;;;;11.07;43.20;95596.06;5112184;28;20444;-77
2022/10/19 06:21:30;;;;;;;9.80;3.33;;;;;;;11.53;42.94;95600.09;5105388;28;20528;-78
2022/10/19 06:24:01;;;;;;;1.30;1.20;;;;;;;11.02;43.57;95603.84;5104082;28;20504;-78
2022/10/19 06:26:30;;;;;;;1.57;1.47;;;;;;;11.11;44.15;95597.94;5106572;28;20488;-76
2022/10/19 06:28:59;;;;;;;3.70;2.83;;;;;;;11.19;44.17;95594.91;5093415;28;20443;-76
2022/10/19 06:31:28;;;;;;;10.77;3.10;;;;;;;12.07;41.73;95596.53;5106249;28;20437;-76
2022/10/19 06:33:55;;;;;;;1.67;1.57;;;;;;;11.21;44.03;95600.72;5103904;28;20547;-76
2022/10/19 06:36:25;;;;;;;1.33;1.23;;;;;;;10.83;44.82;95610.38;5110956;28;20523;-77
2022/10/19 06:38:54;;;;;;;1.60;1.50;;;;;;;11.81;43.12;95592.03;5102596;28;20454;-76
2022/10/19 06:41:22;;;;;;;2.40;2.10;;;;;;;11.89;42.98;95602.13;5091056;28;20603;-76
2022/10/19 06:43:53;;;;;;;0.97;0.97;;;;;;;11.64;43.74;95591.28;5104291;28;20476;-75
2022/10/19 06:46:22;;;;;;;0.67;0.67;;;;;;;11.97;43.97;95591.19;5090504;28;20473;-77
2022/10/19 06:48:55;;;;;;;1.43;1.33;;;;;;;11.92;43.48;95589.28;5104604;28;20446;-76
2022/10/19 06:51:24;;;;;;;1.30;1.23;;;;;;;11.94;43.18;95576.69;5091293;28;20449;-76
2022/10/19 06:53:53;;;;;;;1.33;1.07;;;;;;;12.20;43.96;95585.63;5090694;28;20430;-77
2022/10/19 06:56:25;;;;;;;2.07;1.97;;;;;;;11.84;43.93;95575.81;5101068;28;20962;-73
2022/10/19 06:58:53;;;;;;;0.77;0.77;;;;;;;12.23;42.29;95548.34;5096527;28;20445;-76
2022/10/19 07:01:21;;;;;;;0.77;0.70;;;;;;;12.36;41.97;95571.59;5111163;28;21177;-76
2022/10/19 07:03:52;;;;;;;7.23;2.03;;;;;;;12.02;43.12;95562.34;5096181;28;20571;-76
2022/10/19 07:06:21;;;;;;;1.17;1.17;;;;;;;12.40;41.62;95570.06;5103391;28;20460;-75
2022/10/19 07:08:48;;;;;;;1.37;1.27;;;;;;;12.83;40.53;95548.81;5091958;28;20880;-76
2022/10/19 07:11:18;;;;;;;2.73;2.37;;;;;;;12.84;41.54;95560.94;5120228;27;20463;-75
2022/10/19 07:13:45;;;;;;;2.00;1.77;;;;;;;12.83;41.43;95567.22;5116836;28;20789;-76
2022/10/19 07:16:14;;;;;;;1.20;1.13;;;;;;;13.31;40.18;95568.06;5110711;28;20567;-76
2022/10/19 07:18:50;;;;;;;0.67;0.67;;;;;;;13.06;41.15;95558.97;5110649;28;20534;-75
2022/10/19 07:21:18;;;;;;;1.13;1.13;;;;;;;12.84;40.55;95565.41;5105270;28;20462;-76
2022/10/19 07:23:46;;;;;;;2.07;1.83;;;;;;;13.15;40.67;95561.94;5101229;28;20484;-75
2022/10/19 07:26:27;;;;;;;0.80;0.53;;;;;;;13.03;40.21;95556.88;5106232;28;20444;-75
2022/10/19 07:28:55;;;;;;;1.40;1.30;;;;;;;13.34;38.72;95560.44;5089712;28;20441;-75
2022/10/19 07:31:24;;;;;;;1.07;1.07;;;;;;;13.71;38.72;95555.09;5108084;28;20528;-75
2022/10/19 07:33:52;;;;;;;10.10;2.40;;;;;;;13.23;39.80;95555.41;5110512;28;20444;-77
2022/10/19 07:36:21;;;;;;;2.13;1.57;;;;;;;13.90;39.65;95550.94;5110843;28;20443;-75
2022/10/19 07:38:48;;;;;;;0.20;0.20;;;;;;;14.59;38.63;95541.56;5109732;28;20448;-75
2022/10/19 07:41:30;;;;;;;0.63;0.63;;;;;;;14.84;37.67;95538.91;5096976;28;20461;-75
2022/10/19 07:43:57;;;;;;;0.50;0.50;;;;;;;13.65;39.25;95529.81;5105328;28;20472;-76
2022/10/19 07:46:28;;;;;;;2.30;1.80;;;;;;;14.21;38.50;95534.13;5108623;28;20520;-75
2022/10/19 07:48:54;;;;;;;0.70;0.70;;;;;;;14.00;39.46;95537.78;5109496;28;20516;-76
2022/10/19 07:51:22;;;;;;;1.73;1.63;;;;;;;14.22;38.60;95530.44;5088431;28;20441;-75
2022/10/19 07:53:49;;;;;;;1.70;1.60;;;;;;;14.08;39.19;95521.47;5106546;28;20448;-76
2022/10/19 07:56:21;;;;;;;4.90;2.33;;;;;;;14.62;38.03;95512.00;5101045;28;20473;-75
2022/10/19 07:58:53;;;;;;;0.67;0.67;;;;;;;15.04;37.76;95509.84;5091499;28;20442;-75
2022/10/19 08:01:26;;;;;;;3.00;2.20;;;;;;;14.54;37.99;95507.28;5110289;28;20535;-76
2022/10/19 08:03:54;;;;;;;0.37;0.37;;;;;;;15.35;37.23;95507.09;5108247;28;20475;-75
2022/10/19 08:06:41;;;;;;;1.03;0.67;;;;;;;15.42;36.78;95492.56;5100508;28;20436;-75
2022/10/19 08:09:08;;;;;;;3.03;1.33;;;;;;;14.96;37.33;95497.19;5095267;28;20758;-75
2022/10/19 08:11:41;;;;;;;0.63;0.63;;;;;;;15.42;36.41;95494.44;5099298;28;20455;-76
2022/10/19 08:14:10;;;;;;;7.10;1.60;;;;;;;15.77;36.15;95491.63;5091390;28;20536;-75
2022/10/19 08:16:43;;;;;;;1.87;1.77;;;;;;;16.86;34.97;95491.09;5110215;28;20925;-76
2022/10/19 08:19:13;;;;;;;1.73;0.97;;;;;;;16.95;34.60;95489.41;5095471;28;20485;-74
2022/10/19 08:21:42;;;;;;;1.73;1.63;;;;;;;16.71;35.04;95494.69;5109755;28;20986;-75
2022/10/19 08:24:10;;;;;;;1.33;1.03;;;;;;;16.40;35.67;95498.59;5094936;28;20857;-76
2022/10/19 08:26:38;;;;;;;0.63;0.63;;;;;;;16.35;35.37;95474.81;5109656;28;20953;-74
2022/10/19 08:29:23;;;;;;;9.47;2.17;;;;;;;16.65;34.66;95479.91;5109326;28;20440;-74
2022/10/19 08:31:56;;;;;;;1.37;1.27;;;;;;;18.08;33.65;95476.09;5089077;28;20952;-76
2022/10/19 08:34:23;;;;;;;1.30;1.20;;;;;;;18.08;32.95;95479.53;5091314;28;20524;-74
2022/10/19 08:36:50;;;;;;;1.67;1.30;;;;;;;18.14;32.95;95470.44;5106625;28;20994;-75
2022/10/19 08:39:19;;;;;;;1.57;1.47;;;;;;;18.18;32.87;95475.94;5107202;28;20805;-76
2022/10/19 08:42:07;;;;;;;0.60;0.60;;;;;;;18.19;33.01;95457.06;5102231;27;21265;-75
2022/10/19 08:45:11;;;;;;;1.63;1.53;;;;;;;18.58;32.18;95461.25;5099760;28;20476;-75
2022/10/19 08:47:59;;;;;;;5.67;3.37;;;;;;;18.82;31.50;95454.75;5113885;28;20561;-76
2022/10/19 08:50:38;;;;;;;0.40;0.40;;;;;;;19.02;29.65;95454.38;5100754;28;20444;-76
2022/10/19 08:53:41;;;;;;;1.63;1.33;;;;;;;18.64;29.49;95447.63;5104617;28;20811;-75
2022/10/19 08:56:30;;;;;;;1.43;1.33;;;;;;;19.02;29.10;95438.44;5098080;28;20927;-76
2022/10/19 08:59:29;;;;;;;1.33;1.23;;;;;;;19.46;30.29;95439.72;5093235;28;20447;-75
2022/10/19 09:02:01;;;;;;;3.70;2.50;;;;;;;19.87;28.72;95437.78;5093191;28;20444;-74
2022/10/19 09:04:35;;;;;;;1.00;0.97;;;;;;;19.79;28.45;95436.59;5098933;28;20505;-75
2022/10/19 09:07:23;;;;;;;0.60;0.60;;;;;;;19.91;28.02;95381.00;5099522;28;20444;-75
2022/10/19 09:10:09;;;;;;;0.90;0.90;;;;;;;20.59;28.83;95423.28;5102179;28;20428;-73
2022/10/19 09:12:47;;;;;;;2.30;1.43;;;;;;;20.73;28.11;95434.63;5098720;28;20440;-74
2022/10/19 09:15:18;;;;;;;0.20;0.20;;;;;;;21.09;27.13;95421.97;5101519;28;20483;-75
2022/10/19 09:17:45;;;;;;;0.57;0.57;;;;;;;21.34;26.98;95409.81;5096456;28;20497;-74
2022/10/19 09:20:20;;;;;;;1.50;1.40;;;;;;;21.54;27.32;95419.13;5116175;28;21021;-64
2022/10/19 09:23:16;;;;;;;0.40;0.40;;;;;;;21.39;27.23;95415.00;5118024;28;20454;-74
2022/10/19 09:25:43;;;;;;;0.20;0.20;;;;;;;21.91;26.50;95418.56;5100930;28;20998;-74
2022/10/19 09:28:09;;;;;;;0.40;0.40;;;;;;;21.84;27.18;95411.03;5112761;28;20782;-72
2022/10/19 09:30:40;;;;;;;2.67;1.60;;;;;;;21.39;26.89;95411.53;5100991;28;20521;-74
2022/10/19 09:33:15;;;;;;;0.30;0.30;;;;;;;21.97;26.84;95419.97;5096507;28;20440;-72
2022/10/19 09:35:44;;;;;;;2.73;1.40;;;;;;;22.75;25.96;95410.78;5099464;28;20957;-75
2022/10/19 09:38:15;;;;;;;0.40;0.40;;;;;;;22.55;25.59;95414.13;5106357;28;20449;-76
2022/10/19 09:40:42;;;;;;;0.93;0.93;;;;;;;21.79;26.88;95415.72;5101114;28;20202;-74
2022/10/19 09:43:20;;;;;;;0.63;0.63;;;;;;;22.13;26.34;95408.50;5101149;28;20512;-75
2022/10/19 09:46:12;;;;;;;0.30;0.30;;;;;;;22.73;26.10;95411.13;5109181;28;20249;-73
2022/10/19 09:48:51;;;;;;;0.30;0.30;;;;;;;22.52;27.00;95407.50;5092238;28;20714;-73
2022/10/19 09:51:19;;;;;;;1.10;0.83;;;;;;;22.76;26.10;95399.78;5091352;28;20268;-75
2022/10/19 09:53:53;;;;;;;0.30;0.30;;;;;;;22.38;26.26;95388.22;5092937;28;20215;-74
2022/10/19 09:56:24;;;;;;;0.80;0.73;;;;;;;23.08;25.50;95393.81;5082166;28;20280;-73
2022/10/19 09:58:56;;;;;;;0.87;0.87;;;;;;;22.71;25.33;95391.94;5090517;28;20256;-74
2022/10/19 10:01:37;;;;;;;2.30;1.17;;;;;;;22.96;25.75;95396.41;5089167;28;20195;-73
2022/10/19 10:04:13;;;;;;;3.00;1.43;;;;;;;23.32;25.70;95395.94;5110441;28;20700;-73
2022/10/19 10:06:43;;;;;;;0.40;0.40;;;;;;;23.31;24.97;95391.72;5112652;28;20200;-72
2022/10/19 10:09:18;;;;;;;0.60;0.60;;;;;;;23.12;24.51;95381.41;5095104;28;20290;-74
2022/10/19 10:11:48;;;;;;;0.20;0.20;;;;;;;22.98;24.79;95386.19;5098436;28;20707;-74
2022/10/19 10:14:23;;;;;;;1.83;1.00;;;;;;;22.82;25.19;95382.47;5119891;28;20268;-70
2022/10/19 10:17:01;;;;;;;1.13;0.87;;;;;;;23.31;24.38;95370.31;5102573;28;20665;-73
2022/10/19 10:19:30;;;;;;;0.70;0.70;;;;;;;22.89;24.76;95377.41;5107492;28;20195;-74
2022/10/19 10:21:58;;;;;;;0.77;0.77;;;;;;;22.88;24.51;95338.41;5101572;28;20247;-75
2022/10/19 10:24:30;;;;;;;0.30;0.30;;;;;;;23.35;25.16;95357.09;5093977;28;20225;-74
2022/10/19 10:27:05;;;;;;;0.17;0.17;;;;;;;22.31;25.40;95350.56;5100852;28;20758;-67
2022/10/19 10:29:37;;;;;;;0.33;0.30;;;;;;;22.77;25.33;95353.25;5108124;28;20233;-72
2022/10/19 10:32:16;;;;;;;0.20;0.20;;;;;;;22.97;25.24;95336.50;5090488;28;20741;-74
2022/10/19 10:34:46;;;;;;;0.73;0.67;;;;;;;22.94;24.38;95326.47;5105086;28;20211;-73
2022/10/19 10:37:28;;;;;;;0.30;0.30;;;;;;;22.34;25.03;95328.53;5102021;28;20210;-72
2022/10/19 10:39:57;;;;;;;3.40;1.27;;;;;;;22.98;25.08;95332.72;5091850;28;20187;-73
2022/10/19 10:42:40;;;;;;;0.27;0.27;;;;;;;23.38;25.22;95324.34;5093956;28;20193;-73
2022/10/19 10:45:39;;;;;;;1.23;1.13;;;;;;;22.75;24.53;95320.75;5110953;28;20230;-70
2022/10/19 10:48:24;;;;;;;0.77;0.77;;;;;;;22.87;25.01;95331.53;5087647;28;20468;-74
2022/10/19 10:50:51;;;;;;;0.33;0.33;;;;;;;22.68;24.12;95314.34;5099908;28;20203;-70
2022/10/19 10:53:48;;;;;;;0.40;0.40;;;;;;;22.97;24.15;95314.34;5090546;28;20282;-72
2022/10/19 10:56:34;;;;;;;0.30;0.30;;;;;;;23.03;24.21;95297.78;5099473;28;20942;-69
2022/10/19 10:59:09;;;;;;;0.57;0.57;;;;;;;23.45;23.34;95297.88;5095850;28;20241;-70
2022/10/19 11:01:52;;;;;;;0.60;0.60;;;;;;;22.95;24.11;95295.97;5110730;28;20197;-68
2022/10/19 11:04:24;;;;;;;0.73;0.67;;;;;;;23.52;24.09;95290.09;5104840;28;20215;-73
2022/10/19 11:06:57;;;;;;;0.67;0.67;;;;;;;23.48;24.09;95278.50;5090405;28;20203;-72
2022/10/19 11:09:35;;;;;;;2.40;1.07;;;;;;;22.83;24.51;95282.50;5110072;28;20194;-74
2022/10/19 11:12:07;;;;;;;0.50;0.50;;;;;;;23.52;24.49;95274.81;5110428;28;20194;-73
2022/10/19 11:14:43;;;;;;;0.20;0.20;;;;;;;24.23;23.56;95280.81;5095949;28;20191;-73
2022/10/19 11:17:21;;;;;;;0.30;0.30;;;;;;;24.26;22.46;95277.47;5095785;28;20214;-74
2022/10/19 11:19:51;;;;;;;0.30;0.30;;;;;;;23.98;22.07;95276.44;5096965;28;20285;-72
2022/10/19 11:22:38;;;;;;;0.10;0.10;;;;;;;24.39;21.95;95267.53;5110623;28;20246;-74
2022/10/19 11:25:44;;;;;;;0.30;0.30;;;;;;;24.49;21.44;95262.53;5089372;28;20211;-72
2022/10/19 11:28:47;;;;;;;0.83;0.30;;;;;;;24.59;21.21;95266.66;5089645;28;20225;-73
2022/10/19 11:31:34;;;;;;;0.50;0.50;;;;;;;24.83;21.90;95256.78;5094301;28;20686;-74
2022/10/19 11:34:36;;;;;;;3.40;0.60;;;;;;;24.61;21.60;95254.50;5097607;28;20209;-73
2022/10/19 11:37:09;;;;;;;0.77;0.77;;;;;;;24.58;21.08;95251.72;5098566;28;20218;-68
2022/10/19 11:40:05;;;;;;;0.60;0.60;;;;;;;24.93;20.86;95250.94;5095667;28;20199;-74
2022/10/19 11:43:05;;;;;;;0.30;0.30;;;;;;;25.01;20.21;95252.72;5095633;28;20678;-75
2022/10/19 11:45:53;;;;;;;0.30;0.30;;;;;;;24.22;20.05;95255.13;5109862;28;20240;-74
2022/10/19 11:48:37;;;;;;;0.27;0.27;;;;;;;24.51;19.79;95246.91;5110374;28;20750;-74
2022/10/19 11:51:32;;;;;;;0.40;0.40;;;;;;;24.61;19.69;95235.75;5090263;28;20229;-73
2022/10/19 11:54:15;;;;;;;1.53;1.33;;;;;;;25.29;19.40;95220.56;5104135;28;20215;-73
2022/10/19 11:57:19;;;;;;;0.10;0.10;;;;;;;25.14;19.15;95224.00;5102548;28;20782;-69
2022/10/19 12:00:11;;;;;;;0.60;0.60;;;;;;;25.44;18.42;95211.06;5110486;28;20206;-73
2022/10/19 12:03:14;;;;;;;0.30;0.30;;;;;;;25.72;19.00;95218.00;5100247;28;20183;-70
2022/10/19 12:06:02;;;;;;;3.20;0.90;;;;;;;25.52;18.73;95202.09;5105807;28;20213;-71